sensor_id;sensor_type;location;lat;lon;timestamp;P1;durP1;ratioP1;P2;durP2;ratioP2
62711;SDS011;48772;55.586;37.730;2022-09-17T00:00:37;7.20;;;4.38;;
62711;SDS011;48772;55.586;37.730;2022-09-17T00:03:03;6.60;;;5.85;;
62711;SDS011;48772;55.586;37.730;2022-09-17T00:05:29;8.27;;;5.78;;
62711;SDS011;48772;55.586;37.730;2022-09-17T00:07:55;9.10;;;6.57;;
62711;SDS011;48772;55.586;37.730;2022-09-17T00:10:20;7.40;;;6.25;;
62711;SDS011;48772;55.586;37.730;2022-09-17T00:12:47;8.73;;;6.60;;
62711;SDS011;48772;55.586;37.730;2022-09-17T00:15:13;9.38;;;6.35;;
62711;SDS011;48772;55.586;37.730;2022-09-17T00:17:39;8.75;;;6.53;;
62711;SDS011;48772;55.586;37.730;2022-09-17T00:20:06;8.52;;;6.20;;
62711;SDS011;48772;55.586;37.730;2022-09-17T00:22:34;8.95;;;6.13;;
62711;SDS011;48772;55.586;37.730;2022-09-17T00:25:00;7.85;;;5.90;;
62711;SDS011;48772;55.586;37.730;2022-09-17T00:27:26;6.85;;;4.65;;
62711;SDS011;48772;55.586;37.730;2022-09-17T00:29:51;8.70;;;5.85;;
62711;SDS011;48772;55.586;37.730;2022-09-17T00:32:17;6.63;;;4.68;;
62711;SDS011;48772;55.586;37.730;2022-09-17T00:34:42;6.50;;;5.05;;
62711;SDS011;48772;55.586;37.730;2022-09-17T00:37:08;6.30;;;5.20;;
62711;SDS011;48772;55.586;37.730;2022-09-17T00:39:33;6.70;;;5.00;;
62711;SDS011;48772;55.586;37.730;2022-09-17T00:41:59;9.07;;;6.05;;
62711;SDS011;48772;55.586;37.730;2022-09-17T00:47:16;7.38;;;5.18;;
62711;SDS011;48772;55.586;37.730;2022-09-17T00:49:43;6.55;;;5.43;;
62711;SDS011;48772;55.586;37.730;2022-09-17T00:52:11;7.78;;;6.07;;
62711;SDS011;48772;55.586;37.730;2022-09-17T00:54:40;8.80;;;6.07;;
62711;SDS011;48772;55.586;37.730;2022-09-17T00:57:07;11.50;;;6.30;;
62711;SDS011;48772;55.586;37.730;2022-09-17T00:59:32;6.82;;;6.13;;
62711;SDS011;48772;55.586;37.730;2022-09-17T01:01:58;7.90;;;6.07;;
62711;SDS011;48772;55.586;37.730;2022-09-17T01:04:25;6.70;;;5.05;;
62711;SDS011;48772;55.586;37.730;2022-09-17T01:17:50;7.38;;;6.00;;
62711;SDS011;48772;55.586;37.730;2022-09-17T01:25:52;9.15;;;6.18;;
62711;SDS011;48772;55.586;37.730;2022-09-17T01:28:29;7.05;;;6.18;;
62711;SDS011;48772;55.586;37.730;2022-09-17T01:31:02;11.68;;;7.07;;
62711;SDS011;48772;55.586;37.730;2022-09-17T01:38:40;9.20;;;6.40;;
62711;SDS011;48772;55.586;37.730;2022-09-17T01:46:13;11.40;;;4.93;;
62711;SDS011;48772;55.586;37.730;2022-09-17T01:48:42;8.23;;;4.70;;
62711;SDS011;48772;55.586;37.730;2022-09-17T01:51:10;9.07;;;5.40;;
62711;SDS011;48772;55.586;37.730;2022-09-17T01:53:52;8.98;;;5.10;;
62711;SDS011;48772;55.586;37.730;2022-09-17T01:56:23;7.65;;;5.28;;
62711;SDS011;48772;55.586;37.730;2022-09-17T01:58:57;8.88;;;5.75;;
62711;SDS011;48772;55.586;37.730;2022-09-17T02:01:24;10.32;;;5.32;;
62711;SDS011;48772;55.586;37.730;2022-09-17T02:06:19;10.52;;;5.40;;
62711;SDS011;48772;55.586;37.730;2022-09-17T02:08:50;9.70;;;5.95;;
62711;SDS011;48772;55.586;37.730;2022-09-17T02:11:17;6.97;;;6.18;;
62711;SDS011;48772;55.586;37.730;2022-09-17T02:13:50;9.23;;;6.35;;
62711;SDS011;48772;55.586;37.730;2022-09-17T02:16:20;9.63;;;5.53;;
62711;SDS011;48772;55.586;37.730;2022-09-17T02:24:10;6.20;;;4.80;;
62711;SDS011;48772;55.586;37.730;2022-09-17T02:26:37;6.40;;;5.45;;
62711;SDS011;48772;55.586;37.730;2022-09-17T02:29:07;14.55;;;5.18;;
62711;SDS011;48772;55.586;37.730;2022-09-17T02:31:34;4.70;;;4.15;;
62711;SDS011;48772;55.586;37.730;2022-09-17T02:34:00;6.63;;;4.80;;
62711;SDS011;48772;55.586;37.730;2022-09-17T02:36:27;5.60;;;4.35;;
62711;SDS011;48772;55.586;37.730;2022-09-17T02:38:56;6.35;;;4.10;;
62711;SDS011;48772;55.586;37.730;2022-09-17T02:41:22;6.78;;;4.40;;
62711;SDS011;48772;55.586;37.730;2022-09-17T02:44:37;3.35;;;3.00;;
62711;SDS011;48772;55.586;37.730;2022-09-17T02:49:23;10.63;;;4.43;;
62711;SDS011;48772;55.586;37.730;2022-09-17T02:59:37;6.35;;;4.50;;
62711;SDS011;48772;55.586;37.730;2022-09-17T03:04:38;8.77;;;4.30;;
62711;SDS011;48772;55.586;37.730;2022-09-17T03:07:07;7.68;;;4.95;;
62711;SDS011;48772;55.586;37.730;2022-09-17T03:09:34;6.18;;;4.70;;
62711;SDS011;48772;55.586;37.730;2022-09-17T03:11:59;5.30;;;4.20;;
62711;SDS011;48772;55.586;37.730;2022-09-17T03:14:27;4.43;;;3.83;;
62711;SDS011;48772;55.586;37.730;2022-09-17T03:16:52;4.68;;;3.65;;
62711;SDS011;48772;55.586;37.730;2022-09-17T03:19:18;5.40;;;4.72;;
62711;SDS011;48772;55.586;37.730;2022-09-17T03:21:43;7.25;;;4.68;;
62711;SDS011;48772;55.586;37.730;2022-09-17T03:24:09;4.60;;;3.80;;
62711;SDS011;48772;55.586;37.730;2022-09-17T03:26:36;7.70;;;4.05;;
62711;SDS011;48772;55.586;37.730;2022-09-17T03:29:02;5.55;;;5.05;;
62711;SDS011;48772;55.586;37.730;2022-09-17T03:31:27;8.82;;;4.18;;
62711;SDS011;48772;55.586;37.730;2022-09-17T03:33:53;5.53;;;4.53;;
62711;SDS011;48772;55.586;37.730;2022-09-17T03:36:19;8.48;;;4.50;;
62711;SDS011;48772;55.586;37.730;2022-09-17T03:38:44;8.98;;;5.13;;
62711;SDS011;48772;55.586;37.730;2022-09-17T03:41:10;8.27;;;5.00;;
62711;SDS011;48772;55.586;37.730;2022-09-17T03:43:36;9.75;;;5.50;;
62711;SDS011;48772;55.586;37.730;2022-09-17T03:46:02;5.95;;;5.18;;
62711;SDS011;48772;55.586;37.730;2022-09-17T03:48:27;6.53;;;4.72;;
62711;SDS011;48772;55.586;37.730;2022-09-17T03:50:54;10.07;;;5.50;;
62711;SDS011;48772;55.586;37.730;2022-09-17T03:53:19;6.95;;;5.25;;
62711;SDS011;48772;55.586;37.730;2022-09-17T03:55:45;8.13;;;5.45;;
62711;SDS011;48772;55.586;37.730;2022-09-17T03:58:11;5.50;;;4.25;;
62711;SDS011;48772;55.586;37.730;2022-09-17T04:00:36;9.35;;;5.82;;
62711;SDS011;48772;55.586;37.730;2022-09-17T04:03:03;11.43;;;6.18;;
62711;SDS011;48772;55.586;37.730;2022-09-17T04:05:28;8.43;;;5.47;;
62711;SDS011;48772;55.586;37.730;2022-09-17T04:07:54;11.00;;;5.90;;
62711;SDS011;48772;55.586;37.730;2022-09-17T04:10:20;9.13;;;5.43;;
62711;SDS011;48772;55.586;37.730;2022-09-17T04:12:45;8.07;;;5.30;;
62711;SDS011;48772;55.586;37.730;2022-09-17T04:15:11;6.75;;;4.90;;
62711;SDS011;48772;55.586;37.730;2022-09-17T04:17:37;8.55;;;5.90;;
62711;SDS011;48772;55.586;37.730;2022-09-17T04:20:03;7.63;;;5.38;;
62711;SDS011;48772;55.586;37.730;2022-09-17T04:22:29;6.40;;;5.75;;
62711;SDS011;48772;55.586;37.730;2022-09-17T04:24:55;7.70;;;5.20;;
62711;SDS011;48772;55.586;37.730;2022-09-17T04:27:21;10.20;;;5.25;;
62711;SDS011;48772;55.586;37.730;2022-09-17T04:29:46;7.00;;;4.35;;
62711;SDS011;48772;55.586;37.730;2022-09-17T04:32:12;10.13;;;5.55;;
62711;SDS011;48772;55.586;37.730;2022-09-17T04:34:37;6.88;;;4.25;;
62711;SDS011;48772;55.586;37.730;2022-09-17T04:37:03;5.53;;;4.50;;
62711;SDS011;48772;55.586;37.730;2022-09-17T04:39:29;4.95;;;4.30;;
62711;SDS011;48772;55.586;37.730;2022-09-17T04:41:54;4.57;;;4.18;;
62711;SDS011;48772;55.586;37.730;2022-09-17T04:44:20;5.63;;;5.07;;
62711;SDS011;48772;55.586;37.730;2022-09-17T04:46:45;7.78;;;4.47;;
62711;SDS011;48772;55.586;37.730;2022-09-17T04:49:11;5.18;;;3.78;;
62711;SDS011;48772;55.586;37.730;2022-09-17T04:51:37;4.97;;;4.43;;
62711;SDS011;48772;55.586;37.730;2022-09-17T04:54:03;4.05;;;3.35;;
62711;SDS011;48772;55.586;37.730;2022-09-17T04:56:28;6.47;;;3.53;;
62711;SDS011;48772;55.586;37.730;2022-09-17T04:58:54;11.40;;;4.38;;
62711;SDS011;48772;55.586;37.730;2022-09-17T05:01:20;6.30;;;3.92;;
62711;SDS011;48772;55.586;37.730;2022-09-17T05:03:45;5.25;;;4.30;;
62711;SDS011;48772;55.586;37.730;2022-09-17T05:06:11;6.72;;;4.53;;
62711;SDS011;48772;55.586;37.730;2022-09-17T05:08:37;6.63;;;3.72;;
62711;SDS011;48772;55.586;37.730;2022-09-17T05:11:03;6.88;;;3.75;;
62711;SDS011;48772;55.586;37.730;2022-09-17T05:13:29;5.32;;;4.05;;
62711;SDS011;48772;55.586;37.730;2022-09-17T05:15:54;5.75;;;3.17;;
62711;SDS011;48772;55.586;37.730;2022-09-17T05:18:24;6.30;;;4.05;;
62711;SDS011;48772;55.586;37.730;2022-09-17T05:20:51;8.20;;;4.85;;
62711;SDS011;48772;55.586;37.730;2022-09-17T05:23:16;6.55;;;4.10;;
62711;SDS011;48772;55.586;37.730;2022-09-17T05:25:42;12.52;;;4.03;;
62711;SDS011;48772;55.586;37.730;2022-09-17T05:28:08;10.98;;;4.63;;
62711;SDS011;48772;55.586;37.730;2022-09-17T05:30:34;7.93;;;4.57;;
62711;SDS011;48772;55.586;37.730;2022-09-17T05:33:03;7.15;;;4.65;;
62711;SDS011;48772;55.586;37.730;2022-09-17T05:35:30;4.53;;;4.10;;
62711;SDS011;48772;55.586;37.730;2022-09-17T05:37:57;4.82;;;3.70;;
62711;SDS011;48772;55.586;37.730;2022-09-17T05:40:22;6.32;;;4.03;;
62711;SDS011;48772;55.586;37.730;2022-09-17T05:42:48;6.20;;;2.95;;
62711;SDS011;48772;55.586;37.730;2022-09-17T05:45:14;8.77;;;4.03;;
62711;SDS011;48772;55.586;37.730;2022-09-17T05:47:40;8.20;;;3.85;;
62711;SDS011;48772;55.586;37.730;2022-09-17T05:50:05;5.88;;;3.35;;
62711;SDS011;48772;55.586;37.730;2022-09-17T05:52:31;3.60;;;3.10;;
62711;SDS011;48772;55.586;37.730;2022-09-17T05:54:57;3.53;;;3.22;;
62711;SDS011;48772;55.586;37.730;2022-09-17T05:57:23;3.55;;;2.78;;
62711;SDS011;48772;55.586;37.730;2022-09-17T05:59:49;5.25;;;3.58;;
62711;SDS011;48772;55.586;37.730;2022-09-17T06:02:16;6.43;;;3.10;;
62711;SDS011;48772;55.586;37.730;2022-09-17T06:04:45;4.40;;;3.00;;
62711;SDS011;48772;55.586;37.730;2022-09-17T06:07:12;4.40;;;3.25;;
62711;SDS011;48772;55.586;37.730;2022-09-17T06:09:39;3.63;;;3.00;;
62711;SDS011;48772;55.586;37.730;2022-09-17T06:12:07;4.75;;;2.75;;
62711;SDS011;48772;55.586;37.730;2022-09-17T06:14:33;5.88;;;3.00;;
62711;SDS011;48772;55.586;37.730;2022-09-17T06:17:05;6.97;;;2.63;;
62711;SDS011;48772;55.586;37.730;2022-09-17T06:19:31;4.40;;;2.63;;
62711;SDS011;48772;55.586;37.730;2022-09-17T06:21:59;4.10;;;2.63;;
62711;SDS011;48772;55.586;37.730;2022-09-17T06:24:25;2.88;;;2.60;;
62711;SDS011;48772;55.586;37.730;2022-09-17T06:26:51;3.35;;;2.47;;
62711;SDS011;48772;55.586;37.730;2022-09-17T06:29:16;6.60;;;2.58;;
62711;SDS011;48772;55.586;37.730;2022-09-17T06:31:42;7.78;;;2.95;;
62711;SDS011;48772;55.586;37.730;2022-09-17T06:34:12;5.47;;;2.67;;
62711;SDS011;48772;55.586;37.730;2022-09-17T06:36:38;8.45;;;3.00;;
62711;SDS011;48772;55.586;37.730;2022-09-17T06:39:05;3.53;;;2.22;;
62711;SDS011;48772;55.586;37.730;2022-09-17T06:41:32;6.90;;;2.83;;
62711;SDS011;48772;55.586;37.730;2022-09-17T06:43:58;4.55;;;2.45;;
62711;SDS011;48772;55.586;37.730;2022-09-17T06:46:24;5.53;;;2.80;;
62711;SDS011;48772;55.586;37.730;2022-09-17T06:48:51;8.27;;;2.70;;
62711;SDS011;48772;55.586;37.730;2022-09-17T06:51:17;6.57;;;2.10;;
62711;SDS011;48772;55.586;37.730;2022-09-17T06:53:43;6.47;;;2.40;;
62711;SDS011;48772;55.586;37.730;2022-09-17T06:56:09;8.57;;;2.38;;
62711;SDS011;48772;55.586;37.730;2022-09-17T06:58:38;5.85;;;2.13;;
62711;SDS011;48772;55.586;37.730;2022-09-17T07:01:07;9.55;;;2.45;;
62711;SDS011;48772;55.586;37.730;2022-09-17T07:03:33;8.40;;;2.50;;
62711;SDS011;48772;55.586;37.730;2022-09-17T07:05:59;8.90;;;2.15;;
62711;SDS011;48772;55.586;37.730;2022-09-17T07:08:25;8.60;;;2.22;;
62711;SDS011;48772;55.586;37.730;2022-09-17T07:10:50;8.55;;;2.40;;
62711;SDS011;48772;55.586;37.730;2022-09-17T07:13:19;5.80;;;1.90;;
62711;SDS011;48772;55.586;37.730;2022-09-17T07:15:50;3.10;;;1.70;;
62711;SDS011;48772;55.586;37.730;2022-09-17T07:18:16;4.07;;;2.30;;
62711;SDS011;48772;55.586;37.730;2022-09-17T07:20:41;7.68;;;2.22;;
62711;SDS011;48772;55.586;37.730;2022-09-17T07:23:09;9.70;;;2.05;;
62711;SDS011;48772;55.586;37.730;2022-09-17T07:25:36;4.15;;;1.90;;
62711;SDS011;48772;55.586;37.730;2022-09-17T07:28:01;4.57;;;2.30;;
62711;SDS011;48772;55.586;37.730;2022-09-17T07:30:27;8.25;;;2.30;;
62711;SDS011;48772;55.586;37.730;2022-09-17T07:32:54;5.18;;;2.00;;
62711;SDS011;48772;55.586;37.730;2022-09-17T07:35:19;10.93;;;2.10;;
62711;SDS011;48772;55.586;37.730;2022-09-17T07:37:45;9.40;;;2.13;;
62711;SDS011;48772;55.586;37.730;2022-09-17T07:40:11;5.25;;;1.92;;
62711;SDS011;48772;55.586;37.730;2022-09-17T07:42:37;9.35;;;2.22;;
62711;SDS011;48772;55.586;37.730;2022-09-17T07:45:02;5.50;;;1.92;;
62711;SDS011;48772;55.586;37.730;2022-09-17T07:47:28;5.90;;;1.83;;
62711;SDS011;48772;55.586;37.730;2022-09-17T07:49:54;5.43;;;2.22;;
62711;SDS011;48772;55.586;37.730;2022-09-17T07:52:21;5.43;;;1.77;;
62711;SDS011;48772;55.586;37.730;2022-09-17T07:54:47;7.85;;;1.75;;
62711;SDS011;48772;55.586;37.730;2022-09-17T07:57:12;6.10;;;2.05;;
62711;SDS011;48772;55.586;37.730;2022-09-17T07:59:47;4.32;;;1.80;;
62711;SDS011;48772;55.586;37.730;2022-09-17T08:02:41;2.03;;;1.38;;
62711;SDS011;48772;55.586;37.730;2022-09-17T08:05:07;8.70;;;1.50;;
62711;SDS011;48772;55.586;37.730;2022-09-17T08:07:33;4.75;;;1.55;;
62711;SDS011;48772;55.586;37.730;2022-09-17T08:09:58;7.15;;;1.50;;
62711;SDS011;48772;55.586;37.730;2022-09-17T08:12:24;6.20;;;1.75;;
62711;SDS011;48772;55.586;37.730;2022-09-17T08:14:49;3.97;;;1.48;;
62711;SDS011;48772;55.586;37.730;2022-09-17T08:17:15;5.82;;;1.50;;
62711;SDS011;48772;55.586;37.730;2022-09-17T08:19:41;6.28;;;1.60;;
62711;SDS011;48772;55.586;37.730;2022-09-17T08:22:07;2.55;;;1.15;;
62711;SDS011;48772;55.586;37.730;2022-09-17T08:24:33;2.78;;;1.67;;
62711;SDS011;48772;55.586;37.730;2022-09-17T08:27:08;10.05;;;2.38;;
62711;SDS011;48772;55.586;37.730;2022-09-17T08:29:35;2.45;;;1.48;;
62711;SDS011;48772;55.586;37.730;2022-09-17T08:32:01;2.88;;;1.40;;
62711;SDS011;48772;55.586;37.730;2022-09-17T08:34:27;6.90;;;1.48;;
62711;SDS011;48772;55.586;37.730;2022-09-17T08:36:53;3.42;;;1.23;;
62711;SDS011;48772;55.586;37.730;2022-09-17T08:39:25;2.72;;;1.20;;
62711;SDS011;48772;55.586;37.730;2022-09-17T08:42:11;5.70;;;2.05;;
62711;SDS011;48772;55.586;37.730;2022-09-17T08:44:48;2.20;;;1.10;;
62711;SDS011;48772;55.586;37.730;2022-09-17T08:47:39;1.88;;;1.20;;
62711;SDS011;48772;55.586;37.730;2022-09-17T08:50:10;5.72;;;1.40;;
62711;SDS011;48772;55.586;37.730;2022-09-17T08:52:57;1.42;;;1.00;;
62711;SDS011;48772;55.586;37.730;2022-09-17T09:00:21;5.22;;;1.23;;
62711;SDS011;48772;55.586;37.730;2022-09-17T09:05:30;6.05;;;1.10;;
62711;SDS011;48772;55.586;37.730;2022-09-17T09:08:01;4.00;;;1.10;;
62711;SDS011;48772;55.586;37.730;2022-09-17T09:10:44;6.63;;;1.52;;
62711;SDS011;48772;55.586;37.730;2022-09-17T09:13:12;5.43;;;1.55;;
62711;SDS011;48772;55.586;37.730;2022-09-17T09:18:17;2.55;;;1.08;;
62711;SDS011;48772;55.586;37.730;2022-09-17T09:23:19;4.75;;;1.15;;
62711;SDS011;48772;55.586;37.730;2022-09-17T09:33:32;4.90;;;1.20;;
62711;SDS011;48772;55.586;37.730;2022-09-17T09:36:00;2.28;;;1.17;;
62711;SDS011;48772;55.586;37.730;2022-09-17T09:41:05;1.95;;;0.90;;
62711;SDS011;48772;55.586;37.730;2022-09-17T09:52:00;1.00;;;0.90;;
62711;SDS011;48772;55.586;37.730;2022-09-17T09:55:01;2.90;;;1.10;;
62711;SDS011;48772;55.586;37.730;2022-09-17T09:57:21;8.43;;;1.33;;
62711;SDS011;48772;55.586;37.730;2022-09-17T09:59:48;1.55;;;1.00;;
62711;SDS011;48772;55.586;37.730;2022-09-17T10:02:14;3.97;;;1.00;;
62711;SDS011;48772;55.586;37.730;2022-09-17T10:04:39;5.35;;;1.30;;
62711;SDS011;48772;55.586;37.730;2022-09-17T10:07:06;2.70;;;1.23;;
62711;SDS011;48772;55.586;37.730;2022-09-17T10:09:33;1.92;;;1.27;;
62711;SDS011;48772;55.586;37.730;2022-09-17T10:14:39;2.53;;;1.00;;
62711;SDS011;48772;55.586;37.730;2022-09-17T10:19:35;2.85;;;0.90;;
62711;SDS011;48772;55.586;37.730;2022-09-17T10:22:10;3.15;;;1.30;;
62711;SDS011;48772;55.586;37.730;2022-09-17T10:24:43;1.52;;;0.88;;
62711;SDS011;48772;55.586;37.730;2022-09-17T10:27:13;1.05;;;0.90;;
62711;SDS011;48772;55.586;37.730;2022-09-17T10:29:43;3.42;;;1.10;;
62711;SDS011;48772;55.586;37.730;2022-09-17T10:32:14;2.88;;;1.10;;
62711;SDS011;48772;55.586;37.730;2022-09-17T10:34:40;1.13;;;0.90;;
62711;SDS011;48772;55.586;37.730;2022-09-17T10:37:30;4.15;;;1.20;;
62711;SDS011;48772;55.586;37.730;2022-09-17T10:39:54;2.88;;;1.60;;
62711;SDS011;48772;55.586;37.730;2022-09-17T10:42:21;2.80;;;1.30;;
62711;SDS011;48772;55.586;37.730;2022-09-17T10:44:51;2.50;;;1.48;;
62711;SDS011;48772;55.586;37.730;2022-09-17T10:47:36;2.88;;;1.15;;
62711;SDS011;48772;55.586;37.730;2022-09-17T10:52:40;1.58;;;1.00;;
62711;SDS011;48772;55.586;37.730;2022-09-17T11:00:25;2.50;;;0.90;;
62711;SDS011;48772;55.586;37.730;2022-09-17T11:10:57;3.15;;;1.25;;
62711;SDS011;48772;55.586;37.730;2022-09-17T11:13:33;6.75;;;1.50;;
62711;SDS011;48772;55.586;37.730;2022-09-17T11:36:45;3.67;;;0.98;;
62711;SDS011;48772;55.586;37.730;2022-09-17T11:39:14;1.23;;;0.90;;
62711;SDS011;48772;55.586;37.730;2022-09-17T11:41:41;5.68;;;1.40;;
62711;SDS011;48772;55.586;37.730;2022-09-17T11:44:12;3.30;;;1.00;;
62711;SDS011;48772;55.586;37.730;2022-09-17T11:49:18;2.22;;;1.02;;
62711;SDS011;48772;55.586;37.730;2022-09-17T11:51:52;3.83;;;1.13;;
62711;SDS011;48772;55.586;37.730;2022-09-17T11:54:25;1.23;;;1.00;;
62711;SDS011;48772;55.586;37.730;2022-09-17T11:57:11;1.13;;;0.70;;
62711;SDS011;48772;55.586;37.730;2022-09-17T11:59:40;1.42;;;0.90;;
62711;SDS011;48772;55.586;37.730;2022-09-17T12:02:13;1.48;;;0.85;;
62711;SDS011;48772;55.586;37.730;2022-09-17T12:04:46;0.90;;;0.75;;
62711;SDS011;48772;55.586;37.730;2022-09-17T12:10:17;2.33;;;1.02;;
62711;SDS011;48772;55.586;37.730;2022-09-17T12:12:51;3.88;;;1.25;;
62711;SDS011;48772;55.586;37.730;2022-09-17T12:15:22;2.03;;;1.35;;
62711;SDS011;48772;55.586;37.730;2022-09-17T12:20:27;6.30;;;1.42;;
62711;SDS011;48772;55.586;37.730;2022-09-17T12:22:56;3.47;;;1.20;;
62711;SDS011;48772;55.586;37.730;2022-09-17T12:25:25;3.33;;;1.20;;
62711;SDS011;48772;55.586;37.730;2022-09-17T12:27:58;6.35;;;1.45;;
62711;SDS011;48772;55.586;37.730;2022-09-17T12:30:31;2.88;;;1.20;;
62711;SDS011;48772;55.586;37.730;2022-09-17T12:33:21;4.00;;;1.52;;
62711;SDS011;48772;55.586;37.730;2022-09-17T12:35:57;1.67;;;1.20;;
62711;SDS011;48772;55.586;37.730;2022-09-17T12:46:04;1.70;;;1.02;;
62711;SDS011;48772;55.586;37.730;2022-09-17T12:59:11;4.40;;;1.55;;
62711;SDS011;48772;55.586;37.730;2022-09-17T13:12:03;3.22;;;1.50;;
62711;SDS011;48772;55.586;37.730;2022-09-17T13:17:18;1.88;;;1.10;;
62711;SDS011;48772;55.586;37.730;2022-09-17T13:25:03;1.90;;;1.20;;
62711;SDS011;48772;55.586;37.730;2022-09-17T13:27:30;1.58;;;1.02;;
62711;SDS011;48772;55.586;37.730;2022-09-17T13:29:56;3.50;;;1.10;;
62711;SDS011;48772;55.586;37.730;2022-09-17T13:37:44;7.85;;;1.95;;
62711;SDS011;48772;55.586;37.730;2022-09-17T13:42:48;4.47;;;1.63;;
62711;SDS011;48772;55.586;37.730;2022-09-17T13:45:15;4.00;;;1.98;;
62711;SDS011;48772;55.586;37.730;2022-09-17T13:47:49;3.70;;;1.73;;
62711;SDS011;48772;55.586;37.730;2022-09-17T13:52:51;5.22;;;1.70;;
62711;SDS011;48772;55.586;37.730;2022-09-17T13:55:36;1.38;;;1.20;;
62711;SDS011;48772;55.586;37.730;2022-09-17T13:58:03;5.10;;;1.58;;
62711;SDS011;48772;55.586;37.730;2022-09-17T14:05:55;4.80;;;1.98;;
62711;SDS011;48772;55.586;37.730;2022-09-17T14:08:27;4.63;;;1.85;;
62711;SDS011;48772;55.586;37.730;2022-09-17T14:10:55;3.38;;;1.52;;
62711;SDS011;48772;55.586;37.730;2022-09-17T14:13:37;5.20;;;1.60;;
62711;SDS011;48772;55.586;37.730;2022-09-17T14:16:20;5.68;;;1.77;;
62711;SDS011;48772;55.586;37.730;2022-09-17T14:18:54;5.45;;;1.95;;
62711;SDS011;48772;55.586;37.730;2022-09-17T14:21:31;4.10;;;1.60;;
62711;SDS011;48772;55.586;37.730;2022-09-17T14:24:02;4.00;;;1.55;;
62711;SDS011;48772;55.586;37.730;2022-09-17T14:26:35;4.78;;;1.77;;
62711;SDS011;48772;55.586;37.730;2022-09-17T14:29:07;4.15;;;1.67;;
62711;SDS011;48772;55.586;37.730;2022-09-17T14:31:37;4.28;;;2.13;;
62711;SDS011;48772;55.586;37.730;2022-09-17T14:34:03;3.08;;;1.80;;
62711;SDS011;48772;55.586;37.730;2022-09-17T14:41:50;4.78;;;1.45;;
62711;SDS011;48772;55.586;37.730;2022-09-17T14:44:20;5.90;;;1.70;;
62711;SDS011;48772;55.586;37.730;2022-09-17T14:46:57;3.83;;;1.65;;
62711;SDS011;48772;55.586;37.730;2022-09-17T14:49:25;4.25;;;1.67;;
62711;SDS011;48772;55.586;37.730;2022-09-17T14:51:54;4.10;;;1.75;;
62711;SDS011;48772;55.586;37.730;2022-09-17T14:54:24;4.88;;;1.50;;
62711;SDS011;48772;55.586;37.730;2022-09-17T15:01:45;3.85;;;1.80;;
62711;SDS011;48772;55.586;37.730;2022-09-17T15:06:38;4.78;;;2.50;;
62711;SDS011;48772;55.586;37.730;2022-09-17T15:09:04;4.70;;;1.52;;
62711;SDS011;48772;55.586;37.730;2022-09-17T15:11:39;2.88;;;1.60;;
62711;SDS011;48772;55.586;37.730;2022-09-17T15:14:27;4.93;;;1.88;;
62711;SDS011;48772;55.586;37.730;2022-09-17T15:16:54;7.97;;;2.40;;
62711;SDS011;48772;55.586;37.730;2022-09-17T15:21:52;5.80;;;2.17;;
62711;SDS011;48772;55.586;37.730;2022-09-17T15:24:38;5.32;;;2.47;;
62711;SDS011;48772;55.586;37.730;2022-09-17T15:27:12;3.63;;;1.75;;
62711;SDS011;48772;55.586;37.730;2022-09-17T15:29:39;5.57;;;2.10;;
62711;SDS011;48772;55.586;37.730;2022-09-17T15:32:07;5.28;;;2.42;;
62711;SDS011;48772;55.586;37.730;2022-09-17T15:34:34;5.60;;;2.30;;
62711;SDS011;48772;55.586;37.730;2022-09-17T15:39:35;6.05;;;2.58;;
62711;SDS011;48772;55.586;37.730;2022-09-17T15:42:02;7.65;;;3.10;;
62711;SDS011;48772;55.586;37.730;2022-09-17T15:44:27;6.82;;;2.00;;
62711;SDS011;48772;55.586;37.730;2022-09-17T15:46:53;5.75;;;2.47;;
62711;SDS011;48772;55.586;37.730;2022-09-17T15:49:28;5.15;;;3.10;;
62711;SDS011;48772;55.586;37.730;2022-09-17T15:51:54;6.97;;;2.55;;
62711;SDS011;48772;55.586;37.730;2022-09-17T15:54:29;6.50;;;1.92;;
62711;SDS011;48772;55.586;37.730;2022-09-17T15:56:56;3.35;;;2.22;;
62711;SDS011;48772;55.586;37.730;2022-09-17T15:59:27;2.50;;;1.70;;
62711;SDS011;48772;55.586;37.730;2022-09-17T16:01:55;7.07;;;2.92;;
62711;SDS011;48772;55.586;37.730;2022-09-17T16:04:31;7.13;;;2.10;;
62711;SDS011;48772;55.586;37.730;2022-09-17T16:06:58;7.32;;;1.95;;
62711;SDS011;48772;55.586;37.730;2022-09-17T16:12:05;7.63;;;2.25;;
62711;SDS011;48772;55.586;37.730;2022-09-17T16:14:31;6.00;;;2.25;;
62711;SDS011;48772;55.586;37.730;2022-09-17T16:16:57;7.20;;;2.70;;
62711;SDS011;48772;55.586;37.730;2022-09-17T16:19:24;4.55;;;3.05;;
62711;SDS011;48772;55.586;37.730;2022-09-17T16:21:50;7.00;;;2.83;;
62711;SDS011;48772;55.586;37.730;2022-09-17T16:24:15;7.03;;;2.95;;
62711;SDS011;48772;55.586;37.730;2022-09-17T16:26:41;4.43;;;2.30;;
62711;SDS011;48772;55.586;37.730;2022-09-17T16:29:11;11.25;;;2.95;;
62711;SDS011;48772;55.586;37.730;2022-09-17T16:31:40;6.72;;;2.45;;
62711;SDS011;48772;55.586;37.730;2022-09-17T16:34:06;6.53;;;2.92;;
62711;SDS011;48772;55.586;37.730;2022-09-17T16:36:32;9.85;;;3.13;;
62711;SDS011;48772;55.586;37.730;2022-09-17T16:38:57;5.35;;;2.83;;
62711;SDS011;48772;55.586;37.730;2022-09-17T16:41:23;5.95;;;3.00;;
62711;SDS011;48772;55.586;37.730;2022-09-17T16:43:49;11.55;;;3.25;;
62711;SDS011;48772;55.586;37.730;2022-09-17T16:46:16;4.97;;;2.63;;
62711;SDS011;48772;55.586;37.730;2022-09-17T16:48:42;5.55;;;2.92;;
62711;SDS011;48772;55.586;37.730;2022-09-17T16:51:10;9.05;;;2.92;;
62711;SDS011;48772;55.586;37.730;2022-09-17T16:53:36;8.25;;;3.03;;
62711;SDS011;48772;55.586;37.730;2022-09-17T16:56:05;8.93;;;3.47;;
62711;SDS011;48772;55.586;37.730;2022-09-17T16:58:31;10.88;;;3.42;;
62711;SDS011;48772;55.586;37.730;2022-09-17T17:00:57;9.60;;;3.85;;
62711;SDS011;48772;55.586;37.730;2022-09-17T17:03:22;7.25;;;3.45;;
62711;SDS011;48772;55.586;37.730;2022-09-17T17:05:48;11.48;;;4.00;;
62711;SDS011;48772;55.586;37.730;2022-09-17T17:08:13;10.48;;;4.97;;
62711;SDS011;48772;55.586;37.730;2022-09-17T17:10:39;8.70;;;3.60;;
62711;SDS011;48772;55.586;37.730;2022-09-17T17:13:04;8.35;;;4.07;;
62711;SDS011;48772;55.586;37.730;2022-09-17T17:15:30;9.57;;;4.28;;
62711;SDS011;48772;55.586;37.730;2022-09-17T17:17:57;14.05;;;5.20;;
62711;SDS011;48772;55.586;37.730;2022-09-17T17:20:26;5.53;;;3.70;;
62711;SDS011;48772;55.586;37.730;2022-09-17T17:22:51;11.00;;;4.80;;
62711;SDS011;48772;55.586;37.730;2022-09-17T17:25:17;12.10;;;4.97;;
62711;SDS011;48772;55.586;37.730;2022-09-17T17:27:42;11.75;;;4.85;;
62711;SDS011;48772;55.586;37.730;2022-09-17T17:30:08;8.07;;;4.13;;
62711;SDS011;48772;55.586;37.730;2022-09-17T17:32:35;14.05;;;4.45;;
62711;SDS011;48772;55.586;37.730;2022-09-17T17:35:01;7.10;;;3.35;;
62711;SDS011;48772;55.586;37.730;2022-09-17T17:37:28;9.75;;;4.40;;
62711;SDS011;48772;55.586;37.730;2022-09-17T17:40:02;9.35;;;3.65;;
62711;SDS011;48772;55.586;37.730;2022-09-17T17:45:15;9.75;;;3.78;;
62711;SDS011;48772;55.586;37.730;2022-09-17T17:47:40;10.32;;;4.03;;
62711;SDS011;48772;55.586;37.730;2022-09-17T17:50:06;10.90;;;4.03;;
62711;SDS011;48772;55.586;37.730;2022-09-17T17:52:32;9.40;;;3.78;;
62711;SDS011;48772;55.586;37.730;2022-09-17T17:54:58;10.50;;;3.60;;
62711;SDS011;48772;55.586;37.730;2022-09-17T17:57:24;5.63;;;3.13;;
62711;SDS011;48772;55.586;37.730;2022-09-17T17:59:49;5.78;;;2.95;;
62711;SDS011;48772;55.586;37.730;2022-09-17T18:02:15;6.63;;;2.80;;
62711;SDS011;48772;55.586;37.730;2022-09-17T18:04:41;8.35;;;3.42;;
62711;SDS011;48772;55.586;37.730;2022-09-17T18:07:06;9.93;;;4.07;;